createdAt,value
2022-11-22T00:01:20.843Z,100
2022-11-22T00:06:18.691Z,100
2022-11-22T00:11:16.757Z,100
2022-11-22T00:16:14.576Z,100
2022-11-22T00:21:12.693Z,100
2022-11-22T00:26:10.874Z,100
2022-11-22T00:31:09.016Z,100
2022-11-22T00:36:06.973Z,100
2022-11-22T00:41:04.981Z,100
2022-11-22T00:46:03.024Z,100
2022-11-22T00:51:00.810Z,100
2022-11-22T00:55:59.090Z,100
2022-11-22T01:00:57.501Z,100
2022-11-22T01:05:55.672Z,100
2022-11-22T01:10:54.148Z,100
2022-11-22T01:15:52.307Z,100
2022-11-22T01:20:50.274Z,100
2022-11-22T01:25:48.313Z,100
2022-11-22T01:30:46.451Z,100
2022-11-22T01:35:44.722Z,100
2022-11-22T01:40:42.722Z,100
2022-11-22T01:45:40.630Z,100
2022-11-22T01:50:38.679Z,100
2022-11-22T01:55:36.954Z,100
2022-11-22T02:00:34.973Z,100
2022-11-22T02:05:33.045Z,100
2022-11-22T02:10:31.142Z,100
2022-11-22T02:15:29.464Z,100
2022-11-22T02:20:27.384Z,100
2022-11-22T02:25:25.516Z,100
2022-11-22T02:30:23.550Z,100
2022-11-22T02:35:21.880Z,100
2022-11-22T02:40:19.879Z,100
2022-11-22T02:45:18.116Z,100
2022-11-22T02:50:16.365Z,100
2022-11-22T02:55:14.656Z,100
2022-11-22T03:00:12.862Z,100
2022-11-22T03:05:11.029Z,100
2022-11-22T03:10:09.126Z,100
2022-11-22T03:15:07.340Z,100
2022-11-22T03:20:05.368Z,100
2022-11-22T03:25:03.438Z,100
2022-11-22T03:30:01.524Z,100
2022-11-22T03:34:59.632Z,100
2022-11-22T03:39:57.727Z,100
2022-11-22T03:44:55.818Z,100
2022-11-22T03:49:54.038Z,100
2022-11-22T03:54:52.413Z,100
2022-11-22T03:59:50.564Z,100
2022-11-22T04:04:48.632Z,100
2022-11-22T04:09:46.792Z,100
2022-11-22T04:14:44.726Z,100
2022-11-22T04:19:42.483Z,100
2022-11-22T04:24:40.784Z,100
2022-11-22T04:29:38.858Z,100
2022-11-22T04:34:36.907Z,100
2022-11-22T04:39:35.169Z,100
2022-11-22T04:44:33.362Z,100
2022-11-22T04:49:34.326Z,100
2022-11-22T04:54:32.076Z,100
2022-11-22T04:59:30.861Z,100
2022-11-22T05:04:29.051Z,100
2022-11-22T05:09:27.792Z,100
2022-11-22T05:14:26.075Z,100
2022-11-22T05:19:24.574Z,100
2022-11-22T05:24:22.859Z,100
2022-11-22T05:29:21.342Z,100
2022-11-22T05:34:19.554Z,100
2022-11-22T05:39:17.763Z,100
2022-11-22T05:44:15.952Z,100
2022-11-22T05:49:14.191Z,100
2022-11-22T05:54:12.139Z,100
2022-11-22T05:59:10.551Z,100
2022-11-22T06:04:09.097Z,100
2022-11-22T06:09:07.632Z,100
2022-11-22T06:14:05.974Z,100
2022-11-22T06:19:04.292Z,100
2022-11-22T06:24:03.279Z,100
2022-11-22T06:29:02.139Z,99.5
2022-11-22T06:34:01.189Z,97.8
2022-11-22T06:39:00.558Z,94.6
2022-11-22T06:44:01.642Z,87.6
2022-11-22T06:48:59.976Z,90
2022-11-22T06:53:58.246Z,89.9
2022-11-22T06:58:56.844Z,90.5
2022-11-22T07:03:54.792Z,90.9
2022-11-22T07:08:52.705Z,92.8
2022-11-22T07:13:50.909Z,93.7
2022-11-22T07:18:49.278Z,91.5
2022-11-22T07:23:48.951Z,89.7
2022-11-22T07:28:47.060Z,91.5
2022-11-22T07:33:44.945Z,92.3
2022-11-22T07:38:44.758Z,88.3
2022-11-22T07:43:43.114Z,89.9
2022-11-22T07:48:43.261Z,86.9
2022-11-22T07:53:41.049Z,87.6
2022-11-22T07:58:39.337Z,87.6
2022-11-22T08:03:36.994Z,88.9
2022-11-22T08:08:34.678Z,89.8
2022-11-22T08:13:32.618Z,90
2022-11-22T08:18:30.797Z,89.8
2022-11-22T08:23:28.874Z,90
2022-11-22T08:28:27.309Z,88.7
2022-11-22T08:33:26.360Z,87.6
2022-11-22T08:38:24.835Z,86.4
2022-11-22T08:43:23.804Z,85.6
2022-11-22T08:48:22.802Z,84.1
2022-11-22T08:53:21.377Z,83.7
2022-11-22T08:58:20.192Z,83.1
2022-11-22T09:03:19.053Z,80.4
2022-11-22T09:13:15.871Z,81.6
2022-11-22T09:18:13.157Z,82.9
2022-11-22T09:23:11.216Z,81.6
2022-11-22T09:28:10.389Z,79.1
2022-11-22T09:33:09.925Z,76.7
2022-11-22T09:38:09.257Z,73.8
2022-11-22T09:43:07.927Z,71.8
2022-11-22T09:48:09.839Z,71.1
2022-11-22T09:53:06.182Z,69.4
2022-11-22T09:58:03.853Z,69.8
2022-11-22T10:03:01.694Z,70
2022-11-22T10:08:00.098Z,70.2
2022-11-22T10:12:58.584Z,70.9
2022-11-22T10:17:56.387Z,70.9
2022-11-22T10:22:54.546Z,66.7
2022-11-22T10:27:56.223Z,67.1
2022-11-22T10:32:50.149Z,64.4
2022-11-22T10:37:48.960Z,63.7
2022-11-22T10:42:48.640Z,59.5
2022-11-22T10:47:47.578Z,57.8
2022-11-22T10:52:45.381Z,63.9
2022-11-22T10:57:42.617Z,63.1
2022-11-22T11:02:39.848Z,65
2022-11-22T11:07:37.392Z,67.4
2022-11-22T11:12:34.759Z,67
2022-11-22T11:17:32.175Z,68.3
2022-11-22T11:22:51.761Z,71.2
2022-11-22T11:27:27.548Z,69.6
2022-11-22T11:32:25.245Z,71.8
2022-11-22T11:37:23.102Z,71
2022-11-22T11:42:21.005Z,75.4
2022-11-22T11:47:18.999Z,75.9
2022-11-22T11:52:17.245Z,78.1
2022-11-22T11:57:15.608Z,78.7
2022-11-22T12:02:13.592Z,83.9
2022-11-22T12:07:11.631Z,85.1
2022-11-22T12:12:09.504Z,87.5
2022-11-22T12:17:07.565Z,91.1
2022-11-22T12:22:05.515Z,89.4
2022-11-22T12:27:03.790Z,89.5
2022-11-22T12:32:02.137Z,88
2022-11-22T12:37:00.364Z,86.5
2022-11-22T12:41:58.705Z,88.7
2022-11-22T12:46:57.755Z,91
2022-11-22T12:51:55.494Z,91.1
2022-11-22T12:56:54.120Z,90.5
2022-11-22T13:01:52.688Z,90.2
2022-11-22T13:06:51.420Z,88.3
2022-11-22T13:11:50.712Z,86.2
2022-11-22T13:16:49.287Z,84.3
2022-11-22T13:21:47.672Z,83.9
2022-11-22T13:26:45.622Z,84.4
2022-11-22T13:31:44.050Z,83.7
2022-11-22T13:36:42.351Z,82.9
2022-11-22T13:41:40.693Z,81.9
2022-11-22T13:46:39.263Z,80.8
2022-11-22T13:51:37.986Z,79.8
2022-11-22T13:56:36.279Z,80
2022-11-22T14:01:34.852Z,79.2
2022-11-22T14:06:33.141Z,79.3
2022-11-22T14:11:31.834Z,78.4
2022-11-22T14:16:29.527Z,80.3
2022-11-22T14:21:27.567Z,81.9
2022-11-22T14:26:25.521Z,84.6
2022-11-22T14:31:23.319Z,86.9
2022-11-22T14:36:21.325Z,88.8
2022-11-22T14:41:19.205Z,91.2
2022-11-22T14:46:37.613Z,91.7
2022-11-22T14:51:15.140Z,93.8
2022-11-22T14:56:13.134Z,93.8
2022-11-22T15:01:11.247Z,91
2022-11-22T15:09:07.073Z,92.6
2022-11-22T15:11:07.490Z,95.5
2022-11-22T16:00:50.932Z,84.8
2022-11-22T16:06:04.875Z,87
2022-11-22T16:10:47.758Z,87.3
2022-11-22T16:15:45.795Z,88.7
2022-11-22T16:20:43.777Z,89
2022-11-22T16:25:42.002Z,89.9
2022-11-22T16:30:40.568Z,90.8
2022-11-22T16:35:38.803Z,91.5
2022-11-22T16:40:37.280Z,91
2022-11-22T16:45:35.782Z,90.7
2022-11-22T16:50:34.422Z,91.2
2022-11-22T16:55:32.556Z,91.8
2022-11-22T17:00:30.708Z,93.1
2022-11-22T17:05:29.406Z,93.1
2022-11-22T17:10:27.776Z,93.3
2022-11-22T17:15:26.119Z,94.1
2022-11-22T17:20:24.508Z,94.3
2022-11-22T17:25:22.795Z,92.9
2022-11-22T17:30:21.371Z,94.4
2022-11-22T17:35:19.297Z,94.4
2022-11-22T17:40:17.659Z,95.3
2022-11-22T17:45:16.460Z,94.3
2022-11-22T17:50:15.166Z,94.5
2022-11-22T17:55:14.582Z,93.5
2022-11-22T18:00:12.088Z,92.1
2022-11-22T18:05:10.499Z,92.4
2022-11-22T18:10:09.123Z,91.8
2022-11-22T18:15:07.932Z,91.8
2022-11-22T18:20:06.253Z,92.1
2022-11-22T18:25:04.539Z,92.2
2022-11-22T18:30:03.478Z,91.4
2022-11-22T18:35:01.911Z,90.8
2022-11-22T18:40:00.372Z,90.7
2022-11-22T18:44:58.848Z,90.9
2022-11-22T18:49:57.863Z,90.7
2022-11-22T18:54:56.311Z,89.2
2022-11-22T18:59:55.016Z,88.8
2022-11-22T19:04:53.380Z,88.6
2022-11-22T19:09:51.953Z,88.4
2022-11-22T19:14:50.299Z,88.1
2022-11-22T19:19:48.805Z,89.5
2022-11-22T19:24:47.413Z,87.6
2022-11-22T19:29:45.787Z,89.9
2022-11-22T19:34:43.858Z,92.5
2022-11-22T19:39:42.075Z,92.3
2022-11-22T19:44:40.208Z,92.7
2022-11-22T19:49:38.586Z,92.7
2022-11-22T19:54:37.326Z,90.3
2022-11-22T19:59:35.991Z,91.2
2022-11-22T20:04:33.948Z,91.6
2022-11-22T20:09:32.302Z,90.3
2022-11-22T20:14:30.506Z,89.3
2022-11-22T20:19:32.754Z,91
2022-11-22T20:24:26.793Z,88.9
2022-11-22T20:29:25.269Z,85.9
2022-11-22T20:34:23.552Z,87.3
2022-11-22T20:39:24.315Z,87.3
2022-11-22T20:44:25.708Z,85.7
2022-11-22T20:49:20.767Z,86.5
2022-11-22T20:54:18.914Z,88.9
2022-11-22T20:59:17.189Z,88.5
2022-11-22T21:04:16.080Z,89.1
2022-11-22T21:09:14.353Z,89.8
2022-11-22T21:14:12.404Z,90.4
2022-11-22T21:19:10.493Z,91.5
2022-11-22T21:24:08.714Z,94.7
2022-11-22T21:29:10.292Z,94.3
2022-11-22T21:34:05.452Z,95.5
2022-11-22T21:39:03.899Z,97.4
2022-11-22T21:44:02.507Z,97.9
2022-11-22T21:49:00.889Z,98.6
2022-11-22T21:53:59.147Z,99.7
2022-11-22T21:58:57.684Z,100
2022-11-22T22:03:56.101Z,100
2022-11-22T22:08:54.675Z,100
2022-11-22T22:13:53.185Z,100
2022-11-22T22:18:51.466Z,100
2022-11-22T22:23:49.805Z,100
2022-11-22T22:28:48.056Z,100
2022-11-22T22:33:46.094Z,100
2022-11-22T22:38:44.674Z,100
2022-11-22T22:43:42.858Z,100
2022-11-22T22:48:41.145Z,100
2022-11-22T22:53:39.209Z,100
2022-11-22T22:58:37.276Z,100
2022-11-22T23:03:35.505Z,100
2022-11-22T23:08:33.558Z,100
2022-11-22T23:13:32.192Z,100
2022-11-22T23:18:30.318Z,100
2022-11-22T23:23:28.676Z,100
2022-11-22T23:28:27.101Z,100
2022-11-22T23:33:25.377Z,100
2022-11-22T23:38:24.937Z,100
2022-11-22T23:43:23.185Z,100
2022-11-22T23:48:21.577Z,100
2022-11-22T23:53:19.619Z,100
2022-11-22T23:58:18.197Z,100
